Weather at Riverside Municipal Airport

Public forecast

Using degrees Fahrenheit for public forecast. Weather courtesy of forecast.io.

Current aviation weather report (METAR) for Riverside Municipal Airport

Retrieved 2021/10/22 02:53 UTC (48 minutes ago):

KRAL 220253Z 28004KT 10SM CLR 20/10 A3005 RMK AO2 SLP166 T02000100 53011

Closest aviation forecast (TAF) to Riverside Municipal Airport

Closest forecast is Ontario International Airport, 10.0 nm (18.5 km) NW. Retrieved 2021-10-22 00:27 UTC (3 hours ago):

TAF KONT 212324Z 2200/2306 26009KT P6SM SCT250 FM220400 VRB04KT P6SM SCT200 FM222200 25011KT P6SM SCT250 FM230400 VRB04KT P6SM SCT250